N119SB RJGG-RJBE
Flight info
| Callsign | N119SB |
|---|---|
| Flight time | N/A |
| Altitude | 3000 |
| Route | DCT SUNAM DCT GUJYO DCT HIKNE DCT MIDER DCT KYOTO DCT IKOMA DCT NANKO DCT |
| Aircraft | C172/L-SFG/C |
Departure
| Time | 2026-05-05 17:51 |
|---|---|
| Airport | Chubu Centrair International Airport (RJGG) |
Arrival
| Time | N/A |
|---|---|
| Airport | Kobe Airport (RJBE) |
| Time | Latitude | Longitude | Altitude | Speed | Heading |
|---|---|---|---|---|---|
| 2026-05-05 17:40 | 34.85151 | 136.81148 | 14 ft | 0 kts | 339° |
| 2026-05-05 17:46 | 34.85153 | 136.81147 | 14 ft | 2 kts | 341° |
| 2026-05-05 17:47 | 34.85174 | 136.81144 | 14 ft | 0 kts | 2° |
| 2026-05-05 17:47 | 34.85180 | 136.81144 | 14 ft | 4 kts | 2° |
| 2026-05-05 17:48 | 34.85205 | 136.81143 | 14 ft | 4 kts | 355° |
| 2026-05-05 17:48 | 34.85236 | 136.81138 | 14 ft | 5 kts | 351° |
| 2026-05-05 17:48 | 34.85280 | 136.81128 | 14 ft | 8 kts | 348° |
| 2026-05-05 17:48 | 34.85321 | 136.81091 | 14 ft | 8 kts | 256° |
| 2026-05-05 17:49 | 34.85311 | 136.81026 | 14 ft | 9 kts | 259° |
| 2026-05-05 17:49 | 34.85299 | 136.80946 | 14 ft | 10 kts | 260° |
| 2026-05-05 17:49 | 34.85327 | 136.80865 | 14 ft | 12 kts | 318° |
| 2026-05-05 17:49 | 34.85395 | 136.80794 | 13 ft | 14 kts | 317° |
| 2026-05-05 17:50 | 34.85473 | 136.80712 | 12 ft | 16 kts | 320° |
| 2026-05-05 17:50 | 34.85565 | 136.80632 | 12 ft | 17 kts | 329° |
| 2026-05-05 17:50 | 34.85678 | 136.80577 | 12 ft | 18 kts | 343° |
| 2026-05-05 17:50 | 34.85823 | 136.80542 | 13 ft | 34 kts | 349° |
| 2026-05-05 17:51 | 34.86219 | 136.80439 | 21 ft | 78 kts | 347° |
| 2026-05-05 17:51 | 34.86791 | 136.80322 | 205 ft | 87 kts | 350° |
| 2026-05-05 17:51 | 34.87384 | 136.80129 | 417 ft | 90 kts | 346° |
| 2026-05-05 17:51 | 34.87977 | 136.79895 | 688 ft | 86 kts | 345° |
| 2026-05-05 17:52 | 34.88542 | 136.79677 | 939 ft | 85 kts | 347° |
| 2026-05-05 17:52 | 34.89119 | 136.79434 | 1147 ft | 91 kts | 347° |
| 2026-05-05 17:52 | 34.89742 | 136.79176 | 1273 ft | 99 kts | 353° |
| 2026-05-05 17:52 | 34.90436 | 136.79063 | 1373 ft | 102 kts | 6° |
| 2026-05-05 17:53 | 34.91160 | 136.79104 | 1440 ft | 108 kts | 13° |
| 2026-05-05 17:53 | 34.91913 | 136.79173 | 1531 ft | 111 kts | 13° |
| 2026-05-05 17:53 | 34.92679 | 136.79296 | 1583 ft | 115 kts | 18° |
| 2026-05-05 17:53 | 34.93436 | 136.79542 | 1655 ft | 113 kts | 30° |
| 2026-05-05 17:54 | 34.94184 | 136.79894 | 1645 ft | 119 kts | 32° |
| 2026-05-05 17:54 | 34.94943 | 136.80295 | 1635 ft | 118 kts | 33° |
| 2026-05-05 17:54 | 34.95687 | 136.80721 | 1587 ft | 118 kts | 38° |
| 2026-05-05 17:54 | 34.96388 | 136.81235 | 1534 ft | 117 kts | 41° |
| 2026-05-05 17:55 | 34.97063 | 136.81780 | 1487 ft | 117 kts | 43° |
| 2026-05-05 17:55 | 34.97727 | 136.82337 | 1447 ft | 116 kts | 43° |
| 2026-05-05 17:55 | 34.98375 | 136.82896 | 1402 ft | 115 kts | 43° |
| 2026-05-05 17:55 | 34.99029 | 136.83448 | 1374 ft | 114 kts | 43° |
| 2026-05-05 17:56 | 34.99666 | 136.84014 | 1367 ft | 112 kts | 44° |
| 2026-05-05 17:56 | 35.00311 | 136.84563 | 1335 ft | 114 kts | 43° |
| 2026-05-05 17:56 | 35.00934 | 136.85146 | 1339 ft | 112 kts | 46° |
| 2026-05-05 17:56 | 35.01526 | 136.85755 | 1318 ft | 112 kts | 46° |
| 2026-05-05 17:57 | 35.02115 | 136.86380 | 1304 ft | 112 kts | 47° |
| 2026-05-05 17:57 | 35.02703 | 136.87002 | 1286 ft | 113 kts | 45° |
| 2026-05-05 17:57 | 35.03329 | 136.87578 | 1285 ft | 112 kts | 40° |
| 2026-05-05 17:57 | 35.03981 | 136.88078 | 1289 ft | 113 kts | 36° |
| 2026-05-05 17:58 | 35.04711 | 136.88445 | 1277 ft | 116 kts | 20° |
| 2026-05-05 17:58 | 35.05526 | 136.88508 | 1271 ft | 119 kts | 360° |
| 2026-05-05 17:58 | 35.06336 | 136.88259 | 1256 ft | 123 kts | 342° |
| 2026-05-05 17:58 | 35.07123 | 136.87864 | 1275 ft | 120 kts | 346° |
| 2026-05-05 17:59 | 35.07911 | 136.87549 | 1302 ft | 118 kts | 349° |
| 2026-05-05 17:59 | 35.08709 | 136.87337 | 1323 ft | 116 kts | 359° |
| 2026-05-05 17:59 | 35.09520 | 136.87359 | 1289 ft | 119 kts | 12° |
| 2026-05-05 17:59 | 35.10344 | 136.87479 | 1291 ft | 118 kts | 10° |
| 2026-05-05 18:00 | 35.11151 | 136.87530 | 1296 ft | 118 kts | 9° |
| 2026-05-05 18:00 | 35.11973 | 136.87550 | 1289 ft | 118 kts | 6° |
| 2026-05-05 18:00 | 35.12803 | 136.87525 | 1266 ft | 120 kts | 4° |
| 2026-05-05 18:00 | 35.13633 | 136.87461 | 1280 ft | 120 kts | 0° |
| 2026-05-05 18:01 | 35.14462 | 136.87354 | 1292 ft | 121 kts | 357° |
| 2026-05-05 18:01 | 35.15296 | 136.87177 | 1308 ft | 122 kts | 354° |
| 2026-05-05 18:01 | 35.16123 | 136.86968 | 1326 ft | 121 kts | 354° |
| 2026-05-05 18:01 | 35.16948 | 136.86917 | 1351 ft | 117 kts | 11° |
| 2026-05-05 18:02 | 35.17720 | 136.87122 | 1369 ft | 114 kts | 25° |
| 2026-05-05 18:02 | 35.18414 | 136.87567 | 1350 ft | 113 kts | 45° |
| 2026-05-05 18:02 | 35.18872 | 136.88297 | 1370 ft | 106 kts | 73° |
| 2026-05-05 18:02 | 35.18981 | 136.89183 | 1352 ft | 105 kts | 96° |
| 2026-05-05 18:03 | 35.18837 | 136.90046 | 1345 ft | 104 kts | 110° |
| 2026-05-05 18:03 | 35.18558 | 136.90872 | 1278 ft | 106 kts | 114° |
| 2026-05-05 18:03 | 35.18261 | 136.91703 | 1226 ft | 107 kts | 117° |
| 2026-05-05 18:03 | 35.17844 | 136.92449 | 1205 ft | 106 kts | 131° |
| 2026-05-05 18:04 | 35.17240 | 136.92946 | 1117 ft | 110 kts | 157° |
| 2026-05-05 18:04 | 35.16477 | 136.93020 | 1025 ft | 113 kts | 191° |
| 2026-05-05 18:04 | 35.15819 | 136.92517 | 977 ft | 114 kts | 228° |
| 2026-05-05 18:04 | 35.15501 | 136.91638 | 973 ft | 115 kts | 258° |
| 2026-05-05 18:05 | 35.15447 | 136.90651 | 959 ft | 117 kts | 268° |
| 2026-05-05 18:05 | 35.15396 | 136.89674 | 1014 ft | 114 kts | 267° |
| 2026-05-05 18:05 | 35.15491 | 136.88722 | 1078 ft | 114 kts | 287° |
| 2026-05-05 18:05 | 35.15838 | 136.87849 | 1114 ft | 117 kts | 308° |
| 2026-05-05 18:06 | 35.16318 | 136.87026 | 1139 ft | 120 kts | 304° |
| 2026-05-05 18:06 | 35.16636 | 136.86480 | 1183 ft | 118 kts | 311° |
| 2026-05-05 18:06 | 35.17383 | 136.85503 | 1239 ft | 119 kts | 319° |
| 2026-05-05 18:06 | 35.17983 | 136.84798 | 1267 ft | 120 kts | 318° |
| 2026-05-05 18:07 | 35.18581 | 136.84078 | 1305 ft | 121 kts | 318° |
| 2026-05-05 18:07 | 35.19176 | 136.83368 | 1375 ft | 119 kts | 318° |
| 2026-05-05 18:07 | 35.19771 | 136.82631 | 1368 ft | 122 kts | 317° |
| 2026-05-05 18:07 | 35.20374 | 136.81895 | 1392 ft | 122 kts | 317° |
| 2026-05-05 18:08 | 35.20949 | 136.81168 | 1567 ft | 117 kts | 315° |
| 2026-05-05 18:08 | 35.21514 | 136.80450 | 1653 ft | 122 kts | 317° |
| 2026-05-05 18:08 | 35.22091 | 136.79683 | 1769 ft | 121 kts | 311° |
| 2026-05-05 18:08 | 35.22622 | 136.78876 | 1872 ft | 123 kts | 311° |
| 2026-05-05 18:09 | 35.23155 | 136.78056 | 1975 ft | 123 kts | 309° |
| 2026-05-05 18:09 | 35.23671 | 136.77205 | 2027 ft | 127 kts | 307° |
| 2026-05-05 18:09 | 35.24200 | 136.76329 | 2027 ft | 130 kts | 308° |
| 2026-05-05 18:09 | 35.24746 | 136.75453 | 2009 ft | 130 kts | 307° |
| 2026-05-05 18:10 | 35.25285 | 136.74567 | 2013 ft | 130 kts | 306° |
| 2026-05-05 18:10 | 35.25801 | 136.73689 | 2013 ft | 129 kts | 306° |
| 2026-05-05 18:10 | 35.26326 | 136.72811 | 2042 ft | 127 kts | 306° |
| 2026-05-05 18:10 | 35.26850 | 136.71932 | 2062 ft | 128 kts | 306° |
| 2026-05-05 18:11 | 35.27369 | 136.71061 | 2075 ft | 128 kts | 307° |
| 2026-05-05 18:11 | 35.27899 | 136.70170 | 2055 ft | 130 kts | 305° |
| 2026-05-05 18:11 | 35.28423 | 136.69263 | 2052 ft | 130 kts | 306° |
| 2026-05-05 18:11 | 35.28948 | 136.68363 | 2045 ft | 131 kts | 306° |
| 2026-05-05 18:12 | 35.29507 | 136.67485 | 2041 ft | 130 kts | 310° |
| 2026-05-05 18:12 | 35.30083 | 136.66650 | 2044 ft | 129 kts | 311° |
| 2026-05-05 18:12 | 35.30668 | 136.65825 | 2054 ft | 128 kts | 313° |
| 2026-05-05 18:12 | 35.31253 | 136.65009 | 2060 ft | 128 kts | 313° |
| 2026-05-05 18:13 | 35.31861 | 136.64202 | 2023 ft | 129 kts | 316° |
| 2026-05-05 18:13 | 35.32488 | 136.63420 | 2014 ft | 128 kts | 316° |
| 2026-05-05 18:13 | 35.33102 | 136.62621 | 2007 ft | 129 kts | 313° |
| 2026-05-05 18:13 | 35.33676 | 136.61786 | 2013 ft | 128 kts | 309° |
| 2026-05-05 18:14 | 35.34229 | 136.60939 | 2002 ft | 128 kts | 309° |
| 2026-05-05 18:14 | 35.34787 | 136.60086 | 1987 ft | 129 kts | 310° |
| 2026-05-05 18:14 | 35.35345 | 136.59253 | 2004 ft | 126 kts | 310° |
| 2026-05-05 18:14 | 35.35877 | 136.58412 | 2036 ft | 125 kts | 307° |
| 2026-05-05 18:15 | 35.36346 | 136.57520 | 2035 ft | 125 kts | 295° |
| 2026-05-05 18:15 | 35.36635 | 136.56512 | 2020 ft | 126 kts | 283° |
| 2026-05-05 18:15 | 35.36812 | 136.55462 | 2052 ft | 125 kts | 281° |
| 2026-05-05 18:15 | 35.36974 | 136.54423 | 2039 ft | 126 kts | 282° |
| 2026-05-05 18:16 | 35.37154 | 136.53363 | 2023 ft | 127 kts | 280° |
| 2026-05-05 18:16 | 35.37256 | 136.52304 | 2028 ft | 124 kts | 274° |
| 2026-05-05 18:16 | 35.37311 | 136.51246 | 2039 ft | 123 kts | 269° |
| 2026-05-05 18:16 | 35.37208 | 136.50214 | 1974 ft | 125 kts | 256° |
| 2026-05-05 18:17 | 35.36960 | 136.49223 | 1959 ft | 121 kts | 249° |
| 2026-05-05 18:17 | 35.36669 | 136.48259 | 1938 ft | 120 kts | 249° |
| 2026-05-05 18:17 | 35.36387 | 136.47305 | 1973 ft | 120 kts | 246° |
| 2026-05-05 18:17 | 35.36065 | 136.46361 | 1991 ft | 122 kts | 243° |
| 2026-05-05 18:18 | 35.35747 | 136.45387 | 2007 ft | 124 kts | 245° |
| 2026-05-05 18:18 | 35.35451 | 136.44402 | 2011 ft | 124 kts | 247° |
| 2026-05-05 18:18 | 35.35135 | 136.43405 | 1983 ft | 126 kts | 242° |
| 2026-05-05 18:18 | 35.34830 | 136.42405 | 2010 ft | 127 kts | 247° |
| 2026-05-05 18:19 | 35.34501 | 136.41414 | 1969 ft | 126 kts | 242° |
| 2026-05-05 18:19 | 35.34110 | 136.40471 | 1989 ft | 125 kts | 239° |
| 2026-05-05 18:19 | 35.33755 | 136.39501 | 2017 ft | 123 kts | 246° |
| 2026-05-05 18:19 | 35.33516 | 136.38481 | 1972 ft | 125 kts | 259° |
| 2026-05-05 18:20 | 35.33471 | 136.37415 | 1937 ft | 126 kts | 271° |
| 2026-05-05 18:20 | 35.33484 | 136.36353 | 1967 ft | 123 kts | 265° |
| 2026-05-05 18:20 | 35.33286 | 136.35349 | 1942 ft | 122 kts | 242° |
| 2026-05-05 18:20 | 35.32944 | 136.34382 | 1942 ft | 125 kts | 249° |
| 2026-05-05 18:21 | 35.32816 | 136.33348 | 1978 ft | 125 kts | 270° |
| 2026-05-05 18:21 | 35.32893 | 136.32289 | 1961 ft | 127 kts | 276° |
| 2026-05-05 18:21 | 35.32978 | 136.31202 | 2000 ft | 126 kts | 270° |
| 2026-05-05 18:21 | 35.32869 | 136.30154 | 2029 ft | 124 kts | 250° |
| 2026-05-05 18:22 | 35.32485 | 136.29220 | 1947 ft | 124 kts | 232° |
| 2026-05-05 18:22 | 35.31893 | 136.28484 | 1982 ft | 118 kts | 214° |
| 2026-05-05 18:22 | 35.31253 | 136.27868 | 2026 ft | 116 kts | 212° |
| 2026-05-05 18:22 | 35.30598 | 136.27277 | 2029 ft | 117 kts | 210° |
| 2026-05-05 18:23 | 35.29901 | 136.26748 | 2036 ft | 118 kts | 205° |
| 2026-05-05 18:23 | 35.29195 | 136.26241 | 2053 ft | 117 kts | 207° |
| 2026-05-05 18:23 | 35.28520 | 136.25713 | 2124 ft | 115 kts | 210° |
| 2026-05-05 18:23 | 35.27919 | 136.25053 | 2149 ft | 117 kts | 223° |
| 2026-05-05 18:24 | 35.27373 | 136.24305 | 2112 ft | 119 kts | 225° |
| 2026-05-05 18:24 | 35.26841 | 136.23515 | 2070 ft | 122 kts | 227° |
| 2026-05-05 18:24 | 35.26296 | 136.22709 | 2030 ft | 123 kts | 226° |
| 2026-05-05 18:24 | 35.25761 | 136.21895 | 1974 ft | 123 kts | 229° |
| 2026-05-05 18:25 | 35.25257 | 136.21049 | 1937 ft | 122 kts | 231° |
| 2026-05-05 18:25 | 35.24932 | 136.20486 | 1911 ft | 122 kts | 231° |
| 2026-05-05 18:25 | 35.24293 | 136.19360 | 1863 ft | 121 kts | 232° |
| 2026-05-05 18:25 | 35.23810 | 136.18528 | 1824 ft | 120 kts | 231° |
| 2026-05-05 18:26 | 35.23338 | 136.17678 | 1781 ft | 120 kts | 232° |
| 2026-05-05 18:26 | 35.22850 | 136.16850 | 1731 ft | 119 kts | 228° |
| 2026-05-05 18:26 | 35.22346 | 136.16064 | 1707 ft | 116 kts | 226° |
| 2026-05-05 18:26 | 35.21837 | 136.15315 | 1691 ft | 113 kts | 225° |
| 2026-05-05 18:27 | 35.21335 | 136.14582 | 1690 ft | 113 kts | 225° |
| 2026-05-05 18:27 | 35.20825 | 136.13861 | 1680 ft | 112 kts | 223° |
| 2026-05-05 18:27 | 35.20306 | 136.13168 | 1689 ft | 112 kts | 223° |
| 2026-05-05 18:27 | 35.19780 | 136.12481 | 1718 ft | 111 kts | 222° |
| 2026-05-05 18:28 | 35.18766 | 136.11066 | 1716 ft | 111 kts | 224° |
| 2026-05-05 18:28 | 35.18243 | 136.10369 | 1718 ft | 112 kts | 221° |
| 2026-05-05 18:28 | 35.17698 | 136.09693 | 1725 ft | 112 kts | 220° |
| 2026-05-05 18:29 | 35.17133 | 136.09055 | 1687 ft | 108 kts | 214° |
| 2026-05-05 18:29 | 35.16539 | 136.08487 | 1686 ft | 108 kts | 211° |
| 2026-05-05 18:29 | 35.15936 | 136.07976 | 1713 ft | 106 kts | 210° |
| 2026-05-05 18:29 | 35.15338 | 136.07444 | 1750 ft | 107 kts | 211° |
| 2026-05-05 18:30 | 35.14747 | 136.06875 | 1756 ft | 109 kts | 213° |
| 2026-05-05 18:30 | 35.14152 | 136.06281 | 1743 ft | 112 kts | 214° |
| 2026-05-05 18:30 | 35.13561 | 136.05651 | 1693 ft | 116 kts | 216° |
| 2026-05-05 18:30 | 35.12950 | 136.05045 | 1724 ft | 111 kts | 213° |
| 2026-05-05 18:31 | 35.12339 | 136.04467 | 1716 ft | 111 kts | 213° |
| 2026-05-05 18:31 | 35.11739 | 136.03882 | 1707 ft | 110 kts | 214° |
| 2026-05-05 18:31 | 35.11183 | 136.03269 | 1736 ft | 108 kts | 220° |
| 2026-05-05 18:31 | 35.10663 | 136.02594 | 1740 ft | 111 kts | 223° |
| 2026-05-05 18:32 | 35.10146 | 136.01874 | 1703 ft | 114 kts | 224° |
| 2026-05-05 18:32 | 35.09616 | 136.01144 | 1690 ft | 114 kts | 223° |
| 2026-05-05 18:32 | 35.09089 | 136.00444 | 1717 ft | 111 kts | 223° |
| 2026-05-05 18:32 | 35.08565 | 135.99750 | 1719 ft | 111 kts | 223° |
| 2026-05-05 18:33 | 35.08060 | 135.99042 | 1723 ft | 110 kts | 224° |
| 2026-05-05 18:33 | 35.07536 | 135.98372 | 1718 ft | 108 kts | 218° |
| 2026-05-05 18:33 | 35.06980 | 135.97759 | 1731 ft | 107 kts | 216° |
| 2026-05-05 18:33 | 35.06412 | 135.97179 | 1720 ft | 108 kts | 213° |
| 2026-05-05 18:34 | 35.05814 | 135.96607 | 1723 ft | 110 kts | 213° |
| 2026-05-05 18:34 | 35.05192 | 135.96067 | 1738 ft | 110 kts | 208° |
| 2026-05-05 18:34 | 35.04532 | 135.95588 | 1745 ft | 111 kts | 204° |
| 2026-05-05 18:34 | 35.03849 | 135.95154 | 1743 ft | 112 kts | 203° |
| 2026-05-05 18:35 | 35.03163 | 135.94704 | 1740 ft | 113 kts | 205° |
| 2026-05-05 18:35 | 35.02455 | 135.94287 | 1726 ft | 113 kts | 203° |
| 2026-05-05 18:35 | 35.01744 | 135.93898 | 1740 ft | 111 kts | 200° |
| 2026-05-05 18:35 | 35.01027 | 135.93539 | 1727 ft | 112 kts | 198° |
| 2026-05-05 18:36 | 35.00307 | 135.93221 | 1716 ft | 111 kts | 198° |
| 2026-05-05 18:36 | 34.99597 | 135.92857 | 1674 ft | 112 kts | 202° |
| 2026-05-05 18:36 | 34.98874 | 135.92475 | 1599 ft | 113 kts | 196° |
| 2026-05-05 18:36 | 34.98119 | 135.92225 | 1570 ft | 111 kts | 188° |
| 2026-05-05 18:37 | 34.97369 | 135.92116 | 1577 ft | 108 kts | 183° |
| 2026-05-05 18:37 | 34.96617 | 135.92043 | 1543 ft | 109 kts | 182° |
| 2026-05-05 18:37 | 34.95853 | 135.91984 | 1487 ft | 112 kts | 181° |
| 2026-05-05 18:37 | 34.95072 | 135.91859 | 1426 ft | 114 kts | 186° |
| 2026-05-05 18:38 | 34.94281 | 135.91736 | 1397 ft | 114 kts | 186° |
| 2026-05-05 18:38 | 34.93510 | 135.91623 | 1412 ft | 113 kts | 182° |
| 2026-05-05 18:38 | 34.92730 | 135.91543 | 1396 ft | 112 kts | 181° |
| 2026-05-05 18:38 | 34.91950 | 135.91513 | 1319 ft | 113 kts | 179° |
| 2026-05-05 18:39 | 34.91190 | 135.91280 | 1345 ft | 114 kts | 212° |
| 2026-05-05 18:39 | 34.90793 | 135.90427 | 1295 ft | 125 kts | 261° |
| 2026-05-05 18:39 | 34.90955 | 135.89410 | 1248 ft | 123 kts | 298° |
| 2026-05-05 18:39 | 34.91375 | 135.88522 | 1202 ft | 118 kts | 299° |
| 2026-05-05 18:40 | 34.91590 | 135.87585 | 1150 ft | 116 kts | 270° |
| 2026-05-05 18:40 | 34.91273 | 135.86725 | 1052 ft | 116 kts | 214° |
| 2026-05-05 18:40 | 34.90522 | 135.86409 | 1000 ft | 113 kts | 185° |
| 2026-05-05 18:40 | 34.89781 | 135.86619 | 909 ft | 108 kts | 165° |
| 2026-05-05 18:41 | 34.89130 | 135.86414 | 934 ft | 103 kts | 224° |
| 2026-05-05 18:41 | 34.88622 | 135.85748 | 801 ft | 106 kts | 233° |
| 2026-05-05 18:41 | 34.88216 | 135.85023 | 778 ft | 102 kts | 232° |
| 2026-05-05 18:41 | 34.87657 | 135.84514 | 722 ft | 102 kts | 198° |
| 2026-05-05 18:42 | 34.87036 | 135.84181 | 724 ft | 96 kts | 220° |
| 2026-05-05 18:42 | 34.86448 | 135.83875 | 787 ft | 95 kts | 167° |
| 2026-05-05 18:42 | 34.85832 | 135.84236 | 750 ft | 101 kts | 149° |
| 2026-05-05 18:42 | 34.85219 | 135.84584 | 830 ft | 97 kts | 170° |
| 2026-05-05 18:43 | 34.84553 | 135.84415 | 907 ft | 104 kts | 214° |
| 2026-05-05 18:43 | 34.84175 | 135.83658 | 924 ft | 111 kts | 253° |
| 2026-05-05 18:43 | 34.84047 | 135.82712 | 969 ft | 112 kts | 264° |
| 2026-05-05 18:43 | 34.83905 | 135.81805 | 1088 ft | 107 kts | 258° |
| 2026-05-05 18:44 | 34.83742 | 135.80889 | 1088 ft | 115 kts | 259° |
| 2026-05-05 18:44 | 34.83601 | 135.79916 | 1091 ft | 117 kts | 262° |
| 2026-05-05 18:44 | 34.83467 | 135.78959 | 1125 ft | 117 kts | 259° |
| 2026-05-05 18:44 | 34.83299 | 135.77985 | 1148 ft | 118 kts | 256° |
| 2026-05-05 18:45 | 34.83118 | 135.77006 | 1187 ft | 118 kts | 258° |
| 2026-05-05 18:45 | 34.83038 | 135.76019 | 1239 ft | 118 kts | 273° |
| 2026-05-05 18:45 | 34.83138 | 135.75011 | 1224 ft | 121 kts | 277° |
| 2026-05-05 18:45 | 34.83231 | 135.74004 | 1234 ft | 119 kts | 275° |
| 2026-05-05 18:46 | 34.83277 | 135.72994 | 1211 ft | 120 kts | 272° |
| 2026-05-05 18:46 | 34.83288 | 135.71985 | 1222 ft | 119 kts | 270° |
| 2026-05-05 18:46 | 34.83330 | 135.70991 | 1194 ft | 120 kts | 275° |
| 2026-05-05 18:46 | 34.83369 | 135.69980 | 1185 ft | 119 kts | 269° |
| 2026-05-05 18:47 | 34.83358 | 135.68968 | 1170 ft | 119 kts | 267° |
| 2026-05-05 18:47 | 34.83282 | 135.67966 | 1138 ft | 120 kts | 262° |
| 2026-05-05 18:47 | 34.83115 | 135.66982 | 1129 ft | 119 kts | 252° |
| 2026-05-05 18:47 | 34.82786 | 135.66055 | 1103 ft | 119 kts | 239° |
| 2026-05-05 18:48 | 34.82339 | 135.65218 | 1073 ft | 119 kts | 234° |
| 2026-05-05 18:48 | 34.81857 | 135.64403 | 1067 ft | 118 kts | 232° |
| 2026-05-05 18:48 | 34.81316 | 135.63663 | 1052 ft | 118 kts | 223° |
| 2026-05-05 18:48 | 34.80740 | 135.62965 | 1033 ft | 119 kts | 221° |
| 2026-05-05 18:49 | 34.80096 | 135.62340 | 1040 ft | 118 kts | 212° |
| 2026-05-05 18:49 | 34.79423 | 135.61797 | 1082 ft | 116 kts | 211° |
| 2026-05-05 18:49 | 34.78744 | 135.61255 | 1069 ft | 117 kts | 212° |
| 2026-05-05 18:49 | 34.78077 | 135.60688 | 1091 ft | 117 kts | 214° |
| 2026-05-05 18:50 | 34.77442 | 135.60084 | 1110 ft | 115 kts | 219° |
| 2026-05-05 18:50 | 34.76859 | 135.59417 | 1119 ft | 115 kts | 224° |
| 2026-05-05 18:50 | 34.76315 | 135.58710 | 1111 ft | 117 kts | 224° |
| 2026-05-05 18:50 | 34.75707 | 135.58029 | 1087 ft | 118 kts | 221° |
| 2026-05-05 18:51 | 34.75103 | 135.57353 | 1058 ft | 119 kts | 221° |
| 2026-05-05 18:51 | 34.74490 | 135.56673 | 1011 ft | 120 kts | 221° |
| 2026-05-05 18:51 | 34.73901 | 135.55959 | 1002 ft | 119 kts | 228° |
| 2026-05-05 18:51 | 34.73444 | 135.55130 | 1009 ft | 118 kts | 242° |
| 2026-05-05 18:52 | 34.73116 | 135.54206 | 978 ft | 120 kts | 249° |
| 2026-05-05 18:52 | 34.72790 | 135.53268 | 932 ft | 121 kts | 244° |
| 2026-05-05 18:52 | 34.72404 | 135.52368 | 904 ft | 119 kts | 242° |
| 2026-05-05 18:52 | 34.72043 | 135.51472 | 842 ft | 119 kts | 247° |
| 2026-05-05 18:53 | 34.71727 | 135.50549 | 802 ft | 118 kts | 249° |
| 2026-05-05 18:53 | 34.71403 | 135.49629 | 763 ft | 118 kts | 245° |
| 2026-05-05 18:53 | 34.71012 | 135.48752 | 723 ft | 119 kts | 243° |
| 2026-05-05 18:53 | 34.70626 | 135.47869 | 720 ft | 117 kts | 243° |
| 2026-05-05 18:54 | 34.70154 | 135.47089 | 735 ft | 113 kts | 219° |
| 2026-05-05 18:54 | 34.69420 | 135.46809 | 702 ft | 115 kts | 175° |
| 2026-05-05 18:54 | 34.68630 | 135.47044 | 632 ft | 118 kts | 160° |
| 2026-05-05 18:54 | 34.67864 | 135.47411 | 604 ft | 118 kts | 156° |
| 2026-05-05 18:55 | 34.67143 | 135.47839 | 592 ft | 116 kts | 146° |
| 2026-05-05 18:55 | 34.66527 | 135.48410 | 637 ft | 110 kts | 136° |
| 2026-05-05 18:55 | 34.66051 | 135.49120 | 650 ft | 108 kts | 118° |
| 2026-05-05 18:55 | 34.65815 | 135.49962 | 717 ft | 105 kts | 97° |
| 2026-05-05 18:56 | 34.65800 | 135.50848 | 762 ft | 106 kts | 87° |
| 2026-05-05 18:56 | 34.65890 | 135.51719 | 877 ft | 103 kts | 79° |
| 2026-05-05 18:56 | 34.66171 | 135.52521 | 933 ft | 106 kts | 55° |
| 2026-05-05 18:56 | 34.66734 | 135.53116 | 922 ft | 110 kts | 32° |
| 2026-05-05 18:57 | 34.67445 | 135.53481 | 873 ft | 112 kts | 15° |
| 2026-05-05 18:57 | 34.68202 | 135.53417 | 851 ft | 114 kts | 341° |
| 2026-05-05 18:57 | 34.68836 | 135.52819 | 813 ft | 117 kts | 324° |
| 2026-05-05 18:57 | 34.69576 | 135.52586 | 810 ft | 112 kts | 15° |
| 2026-05-05 18:58 | 34.70136 | 135.53172 | 809 ft | 109 kts | 65° |
| 2026-05-05 18:58 | 34.70164 | 135.54071 | 814 ft | 109 kts | 107° |
| 2026-05-05 18:58 | 34.69765 | 135.54832 | 829 ft | 108 kts | 136° |
| 2026-05-05 18:58 | 34.69120 | 135.55278 | 873 ft | 106 kts | 159° |
| 2026-05-05 18:59 | 34.68416 | 135.55525 | 929 ft | 106 kts | 164° |
| 2026-05-05 18:59 | 34.67715 | 135.55771 | 1007 ft | 104 kts | 161° |
| 2026-05-05 18:59 | 34.67032 | 135.55996 | 1081 ft | 103 kts | 161° |
| 2026-05-05 18:59 | 34.66349 | 135.56276 | 1123 ft | 105 kts | 159° |
| 2026-05-05 19:00 | 34.65651 | 135.56559 | 1173 ft | 105 kts | 160° |
| 2026-05-05 19:00 | 34.64958 | 135.56838 | 1218 ft | 105 kts | 159° |
| 2026-05-05 19:00 | 34.64275 | 135.57153 | 1277 ft | 105 kts | 156° |
| 2026-05-05 19:00 | 34.63605 | 135.57501 | 1337 ft | 105 kts | 154° |
| 2026-05-05 19:01 | 34.62928 | 135.57861 | 1324 ft | 108 kts | 156° |
| 2026-05-05 19:01 | 34.62237 | 135.58229 | 1322 ft | 110 kts | 153° |
| 2026-05-05 19:01 | 34.61541 | 135.58632 | 1271 ft | 114 kts | 152° |
| 2026-05-05 19:01 | 34.60838 | 135.59094 | 1223 ft | 116 kts | 150° |
| 2026-05-05 19:02 | 34.60133 | 135.59543 | 1172 ft | 114 kts | 152° |
| 2026-05-05 19:02 | 34.59408 | 135.59871 | 1162 ft | 108 kts | 172° |
| 2026-05-05 19:02 | 34.58691 | 135.59701 | 1096 ft | 107 kts | 208° |
| 2026-05-05 19:02 | 34.58187 | 135.59052 | 1026 ft | 107 kts | 244° |
| 2026-05-05 19:03 | 34.58036 | 135.58196 | 1003 ft | 104 kts | 272° |
| 2026-05-05 19:03 | 34.58206 | 135.57377 | 979 ft | 101 kts | 298° |
| 2026-05-05 19:03 | 34.58546 | 135.56619 | 921 ft | 102 kts | 302° |
| 2026-05-05 19:03 | 34.58897 | 135.55894 | 900 ft | 95 kts | 303° |
| 2026-05-05 19:04 | 34.59347 | 135.55368 | 889 ft | 90 kts | 347° |
| 2026-05-05 19:04 | 34.59929 | 135.55488 | 869 ft | 86 kts | 38° |
| 2026-05-05 19:04 | 34.60243 | 135.56084 | 864 ft | 85 kts | 63° |
| 2026-05-05 19:04 | 34.60606 | 135.56677 | 775 ft | 87 kts | 54° |
| 2026-05-05 19:05 | 34.60790 | 135.57330 | 702 ft | 81 kts | 85° |
| 2026-05-05 19:05 | 34.60780 | 135.58012 | 566 ft | 78 kts | 100° |
| 2026-05-05 19:05 | 34.60619 | 135.58583 | 436 ft | 72 kts | 115° |
| 2026-05-05 19:05 | 34.60364 | 135.59114 | 260 ft | 73 kts | 123° |
| 2026-05-05 19:06 | 34.60058 | 135.59603 | 90 ft | 70 kts | 126° |
| 2026-05-05 19:06 | 34.59806 | 135.60002 | 40 ft | 39 kts | 128° |
| 2026-05-05 19:06 | 34.59726 | 135.60109 | 40 ft | 9 kts | 179° |
| 2026-05-05 19:06 | 34.59705 | 135.60057 | 41 ft | 6 kts | 265° |
| 2026-05-05 19:07 | 34.59702 | 135.60008 | 42 ft | 6 kts | 266° |
| 2026-05-05 19:07 | 34.59741 | 135.59929 | 41 ft | 12 kts | 306° |
| 2026-05-05 19:07 | 34.59807 | 135.59826 | 41 ft | 21 kts | 306° |
| 2026-05-05 19:07 | 34.59836 | 135.59733 | 41 ft | 8 kts | 212° |
| 2026-05-05 19:08 | 34.59827 | 135.59725 | 41 ft | 0 kts | 218° |